Time;durP1;ratioP1;P1;durP2;ratioP2;P2;SDS_P1;SDS_P2;PMS_P1;PMS_P2;Temp;Humidity;BMP_temperature;BMP_pressure;BME280_temperature;BME280_humidity;BME280_pressure;Samples;Min_cycle;Max_cycle;Signal;HPM_P1;HPM_P2
2023/10/31 00:01:59;;;;;;;;;8.50;6.50;;;;;;;;5062875;28;9709;-89
2023/10/31 00:04:26;;;;;;;;;6.00;6.00;;;;;;;;5052060;28;9862;-87
2023/10/31 00:06:53;;;;;;;;;9.00;9.00;;;;;;;;5058339;28;10052;-88
2023/10/31 00:09:21;;;;;;;;;5.00;5.00;;;;;;;;5067218;28;10837;-87
2023/10/31 00:11:48;;;;;;;;;7.25;7.25;;;;;;;;5069970;28;10028;-88
2023/10/31 00:14:15;;;;;;;;;9.75;9.75;;;;;;;;5057026;28;10126;-87
2023/10/31 00:16:42;;;;;;;;;6.00;6.00;;;;;;;;5074223;28;10097;-88
2023/10/31 00:19:13;;;;;;;;;8.25;8.25;;;;;;;;5072207;28;10002;-89
2023/10/31 00:21:41;;;;;;;;;9.00;6.00;;;;;;;;5069126;28;10066;-88
2023/10/31 00:24:08;;;;;;;;;6.50;4.75;;;;;;;;5068416;28;10553;-89
2023/10/31 00:26:36;;;;;;;;;6.25;6.25;;;;;;;;5069591;28;9881;-87
2023/10/31 00:29:03;;;;;;;;;4.75;4.75;;;;;;;;5069410;28;9880;-88
2023/10/31 00:31:30;;;;;;;;;5.75;5.75;;;;;;;;5069088;28;9842;-88
2023/10/31 00:33:57;;;;;;;;;6.75;6.75;;;;;;;;5068731;28;9946;-88
2023/10/31 00:36:27;;;;;;;;;7.50;7.50;;;;;;;;5070154;28;9921;-88
2023/10/31 00:38:55;;;;;;;;;5.50;5.50;;;;;;;;5071954;28;9931;-87
2023/10/31 00:41:22;;;;;;;;;5.25;5.25;;;;;;;;5073171;28;9842;-89
2023/10/31 00:43:49;;;;;;;;;4.00;4.00;;;;;;;;5067843;28;9711;-88
2023/10/31 00:46:17;;;;;;;;;5.50;5.50;;;;;;;;5065392;28;9777;-88
2023/10/31 00:48:44;;;;;;;;;4.00;4.00;;;;;;;;5072105;28;9945;-88
2023/10/31 00:51:11;;;;;;;;;5.50;5.00;;;;;;;;5069381;28;9620;-87
2023/10/31 00:53:40;;;;;;;;;7.00;7.00;;;;;;;;5067517;28;9758;-87
2023/10/31 00:56:08;;;;;;;;;3.50;3.50;;;;;;;;5068126;28;9957;-88
2023/10/31 00:58:35;;;;;;;;;4.00;4.00;;;;;;;;5068034;28;9733;-89
2023/10/31 01:01:03;;;;;;;;;2.00;2.00;;;;;;;;5067736;28;9843;-88
2023/10/31 01:03:30;;;;;;;;;4.25;4.25;;;;;;;;5068884;28;9778;-89
2023/10/31 01:05:57;;;;;;;;;4.00;4.00;;;;;;;;5067706;28;9905;-88
2023/10/31 01:08:25;;;;;;;;;5.75;5.75;;;;;;;;5056152;28;9702;-87
2023/10/31 01:10:54;;;;;;;;;5.50;5.50;;;;;;;;5067369;28;9855;-88
2023/10/31 01:13:21;;;;;;;;;4.00;4.00;;;;;;;;5057490;28;9976;-88
2023/10/31 01:15:48;;;;;;;;;4.50;4.50;;;;;;;;5068337;28;10000;-88
2023/10/31 01:18:16;;;;;;;;;4.00;4.00;;;;;;;;5068436;28;9833;-87
2023/10/31 01:20:43;;;;;;;;;3.75;3.75;;;;;;;;5067720;28;9954;-87
2023/10/31 01:23:10;;;;;;;;;3.00;3.00;;;;;;;;5068898;28;9934;-88
2023/10/31 01:25:37;;;;;;;;;3.25;3.25;;;;;;;;5067804;28;10501;-88
2023/10/31 01:28:06;;;;;;;;;4.00;4.00;;;;;;;;5068912;28;9982;-88
2023/10/31 01:30:33;;;;;;;;;4.50;3.00;;;;;;;;5062461;28;9773;-88
2023/10/31 01:33:01;;;;;;;;;3.25;3.25;;;;;;;;5064387;28;9779;-87
2023/10/31 01:35:28;;;;;;;;;5.00;3.25;;;;;;;;5062616;28;9915;-88
2023/10/31 01:37:56;;;;;;;;;3.00;3.00;;;;;;;;5071303;28;9695;-88
2023/10/31 01:40:26;;;;;;;;;3.00;2.25;;;;;;;;5070299;28;9634;-88
2023/10/31 01:42:53;;;;;;;;;4.00;4.00;;;;;;;;5072329;28;9737;-89
2023/10/31 01:45:21;;;;;;;;;2.75;2.75;;;;;;;;5069119;28;9828;-86
2023/10/31 01:47:50;;;;;;;;;3.00;3.00;;;;;;;;5059996;28;9756;-88
2023/10/31 01:50:20;;;;;;;;;3.00;3.00;;;;;;;;5071246;28;9781;-87
2023/10/31 01:52:47;;;;;;;;;2.00;2.00;;;;;;;;5070922;28;9709;-87
2023/10/31 01:55:15;;;;;;;;;4.00;2.25;;;;;;;;5070785;28;9893;-89
2023/10/31 01:57:42;;;;;;;;;2.00;2.00;;;;;;;;5071974;28;9900;-89
2023/10/31 02:00:11;;;;;;;;;2.00;2.00;;;;;;;;5060248;28;9829;-88
2023/10/31 02:02:42;;;;;;;;;2.00;2.00;;;;;;;;5080437;28;9952;-87
2023/10/31 02:05:10;;;;;;;;;2.00;2.00;;;;;;;;5061469;28;9860;-89
2023/10/31 02:07:38;;;;;;;;;1.50;1.50;;;;;;;;5071014;28;10007;-89
2023/10/31 02:10:06;;;;;;;;;3.00;3.00;;;;;;;;5072110;28;10022;-89
2023/10/31 02:12:34;;;;;;;;;3.00;3.00;;;;;;;;5071369;28;9959;-89
2023/10/31 02:15:02;;;;;;;;;3.25;3.25;;;;;;;;5071503;28;10130;-88
2023/10/31 02:17:29;;;;;;;;;1.25;1.25;;;;;;;;5071189;28;10167;-89
2023/10/31 02:19:58;;;;;;;;;1.00;1.00;;;;;;;;5072134;28;10009;-88
2023/10/31 02:22:27;;;;;;;;;0.25;0.25;;;;;;;;5072545;28;9879;-88
2023/10/31 02:24:54;;;;;;;;;2.00;2.00;;;;;;;;5071384;28;9937;-89
2023/10/31 02:27:21;;;;;;;;;2.00;2.00;;;;;;;;5072297;28;10177;-89
2023/10/31 02:29:49;;;;;;;;;1.00;1.00;;;;;;;;5075734;28;10236;-89
2023/10/31 02:32:16;;;;;;;;;3.00;2.00;;;;;;;;5071717;28;10254;-89
2023/10/31 02:34:45;;;;;;;;;1.25;1.25;;;;;;;;5073403;28;10262;-89
2023/10/31 02:37:14;;;;;;;;;3.75;3.75;;;;;;;;5074463;28;10283;-89
2023/10/31 02:39:42;;;;;;;;;5.00;3.25;;;;;;;;5074766;28;10541;-88
2023/10/31 02:42:10;;;;;;;;;4.00;4.00;;;;;;;;5053163;28;10392;-89
2023/10/31 02:44:37;;;;;;;;;6.00;4.00;;;;;;;;5064689;28;10485;-87
2023/10/31 02:47:05;;;;;;;;;3.00;3.00;;;;;;;;5071099;28;10410;-88
2023/10/31 02:49:34;;;;;;;;;2.50;2.50;;;;;;;;5073201;28;11325;-87
2023/10/31 02:52:04;;;;;;;;;3.00;3.00;;;;;;;;5060983;28;10391;-88
2023/10/31 02:54:32;;;;;;;;;3.00;3.00;;;;;;;;5067435;28;10351;-88
2023/10/31 02:57:00;;;;;;;;;3.00;3.00;;;;;;;;5069495;28;10343;-88
2023/10/31 02:59:28;;;;;;;;;7.00;5.00;;;;;;;;5071031;28;10276;-87
2023/10/31 03:01:57;;;;;;;;;4.25;3.75;;;;;;;;5070003;28;10278;-89
2023/10/31 03:04:26;;;;;;;;;3.50;3.50;;;;;;;;5068491;28;10261;-88
2023/10/31 03:06:54;;;;;;;;;4.25;3.75;;;;;;;;5069897;28;10356;-88
2023/10/31 03:09:22;;;;;;;;;4.75;3.00;;;;;;;;5069634;28;10276;-89
2023/10/31 03:11:49;;;;;;;;;5.00;4.00;;;;;;;;5070936;28;10174;-89
2023/10/31 03:14:18;;;;;;;;;2.75;2.75;;;;;;;;5069725;28;10260;-87
2023/10/31 03:16:45;;;;;;;;;6.75;4.75;;;;;;;;5069739;28;10456;-89
2023/10/31 03:19:13;;;;;;;;;6.50;6.50;;;;;;;;5067524;28;10223;-88
2023/10/31 03:21:40;;;;;;;;;4.50;4.50;;;;;;;;5071288;28;10400;-88
2023/10/31 03:24:08;;;;;;;;;5.00;5.00;;;;;;;;5073037;28;10297;-88
2023/10/31 03:26:35;;;;;;;;;9.50;7.50;;;;;;;;5069714;28;10258;-87
2023/10/31 03:29:04;;;;;;;;;9.50;9.00;;;;;;;;5064366;28;10428;-87
2023/10/31 03:31:33;;;;;;;;;7.50;5.00;;;;;;;;5069178;28;10460;-88
2023/10/31 03:34:00;;;;;;;;;11.50;10.50;;;;;;;;5065668;28;10401;-88
2023/10/31 03:36:30;;;;;;;;;9.50;6.25;;;;;;;;5069506;28;10447;-88
2023/10/31 03:38:57;;;;;;;;;10.00;10.00;;;;;;;;5068926;28;10445;-87
2023/10/31 03:41:25;;;;;;;;;14.00;9.75;;;;;;;;5070320;28;10330;-88
2023/10/31 03:43:52;;;;;;;;;9.00;9.00;;;;;;;;5069505;28;10599;-87
2023/10/31 03:46:19;;;;;;;;;10.00;8.25;;;;;;;;5067984;28;10477;-87
2023/10/31 03:48:49;;;;;;;;;14.75;12.00;;;;;;;;5057639;28;10484;-88
2023/10/31 03:51:17;;;;;;;;;12.00;10.50;;;;;;;;5068715;28;10653;-86
2023/10/31 03:53:44;;;;;;;;;11.75;11.75;;;;;;;;5069771;28;10639;-87
2023/10/31 03:56:12;;;;;;;;;27.75;24.75;;;;;;;;5068523;28;10568;-88
2023/10/31 03:58:39;;;;;;;;;15.50;11.50;;;;;;;;5069667;28;10954;-88
2023/10/31 04:01:06;;;;;;;;;16.00;11.75;;;;;;;;5069267;28;10569;-88
2023/10/31 04:03:33;;;;;;;;;13.00;11.75;;;;;;;;5069232;28;10538;-88
2023/10/31 04:06:03;;;;;;;;;15.50;13.75;;;;;;;;5069439;28;10500;-88
2023/10/31 04:08:30;;;;;;;;;12.25;10.50;;;;;;;;5069602;28;10415;-88
2023/10/31 04:10:57;;;;;;;;;12.00;8.75;;;;;;;;5069369;28;10559;-88
2023/10/31 04:13:24;;;;;;;;;12.00;12.00;;;;;;;;5069252;28;10558;-89
2023/10/31 04:15:51;;;;;;;;;14.50;13.25;;;;;;;;5069799;28;10632;-89
2023/10/31 04:18:19;;;;;;;;;11.00;10.00;;;;;;;;5070861;28;11071;-90
2023/10/31 04:20:46;;;;;;;;;13.25;13.25;;;;;;;;5071995;28;10655;-88
2023/10/31 04:23:16;;;;;;;;;15.50;13.75;;;;;;;;5072724;28;10756;-88
2023/10/31 04:25:43;;;;;;;;;11.25;11.25;;;;;;;;5072585;28;10679;-89
2023/10/31 04:28:10;;;;;;;;;11.00;8.25;;;;;;;;5073141;28;10560;-89
2023/10/31 04:30:37;;;;;;;;;12.25;12.25;;;;;;;;5070616;28;11258;-86
2023/10/31 04:33:05;;;;;;;;;13.25;11.00;;;;;;;;5069201;28;10599;-85
2023/10/31 04:35:32;;;;;;;;;10.50;10.50;;;;;;;;5067327;28;10426;-87
2023/10/31 04:37:59;;;;;;;;;14.25;11.75;;;;;;;;5068530;28;10568;-85
2023/10/31 04:40:31;;;;;;;;;13.50;11.75;;;;;;;;5068659;28;10593;-86
2023/10/31 04:42:59;;;;;;;;;14.25;12.00;;;;;;;;5069265;28;10555;-88
2023/10/31 04:45:26;;;;;;;;;11.50;11.00;;;;;;;;5068203;28;10686;-87
2023/10/31 04:47:54;;;;;;;;;10.75;10.75;;;;;;;;5060546;28;10460;-87
2023/10/31 04:50:21;;;;;;;;;18.25;17.00;;;;;;;;5068170;28;10489;-85
2023/10/31 04:52:48;;;;;;;;;16.50;15.00;;;;;;;;5067848;28;10583;-86
2023/10/31 04:55:16;;;;;;;;;11.00;10.00;;;;;;;;5056187;28;10731;-86
2023/10/31 04:57:45;;;;;;;;;11.50;11.25;;;;;;;;5065683;28;10357;-87
2023/10/31 05:00:15;;;;;;;;;10.50;10.00;;;;;;;;5066556;28;10485;-86
2023/10/31 05:02:42;;;;;;;;;13.50;13.50;;;;;;;;5068593;28;10475;-85
2023/10/31 05:05:19;;;;;;;;;12.00;10.00;;;;;;;;5071450;28;10401;-85
2023/10/31 05:07:46;;;;;;;;;14.25;14.25;;;;;;;;5068433;28;10417;-90
2023/10/31 05:10:14;;;;;;;;;13.00;11.00;;;;;;;;5070433;28;10468;-83
2023/10/31 05:12:41;;;;;;;;;13.00;13.00;;;;;;;;5071959;28;10353;-87
2023/10/31 05:15:12;;;;;;;;;13.25;12.00;;;;;;;;5071354;28;11132;-82
2023/10/31 05:17:39;;;;;;;;;18.25;18.25;;;;;;;;5072510;28;10183;-85
2023/10/31 05:20:07;;;;;;;;;21.25;14.00;;;;;;;;5071108;28;10406;-87
2023/10/31 05:22:34;;;;;;;;;17.75;17.75;;;;;;;;5075174;28;11228;-87
2023/10/31 05:25:02;;;;;;;;;17.25;15.25;;;;;;;;5076615;28;10384;-87
2023/10/31 05:27:30;;;;;;;;;22.75;20.00;;;;;;;;5071065;28;10338;-87
2023/10/31 05:29:57;;;;;;;;;19.75;19.75;;;;;;;;5071679;28;10284;-88
2023/10/31 05:32:25;;;;;;;;;20.50;18.50;;;;;;;;5071123;28;10307;-88
2023/10/31 05:34:54;;;;;;;;;16.00;13.00;;;;;;;;5068310;28;10428;-86
2023/10/31 05:37:21;;;;;;;;;21.25;19.00;;;;;;;;5070408;28;10472;-88
2023/10/31 05:39:48;;;;;;;;;17.25;15.50;;;;;;;;5070890;28;10429;-89
2023/10/31 05:42:16;;;;;;;;;19.00;14.50;;;;;;;;5071145;28;10457;-87
2023/10/31 05:44:43;;;;;;;;;23.50;22.00;;;;;;;;5071827;28;10348;-89
2023/10/31 05:47:11;;;;;;;;;19.75;18.25;;;;;;;;5058736;28;10273;-87
2023/10/31 05:49:40;;;;;;;;;15.50;13.75;;;;;;;;5071373;28;10378;-87
2023/10/31 05:52:07;;;;;;;;;20.00;17.25;;;;;;;;5070168;28;10114;-88
2023/10/31 05:54:34;;;;;;;;;15.25;14.75;;;;;;;;5071269;28;10264;-87
2023/10/31 05:57:01;;;;;;;;;16.50;16.50;;;;;;;;5072264;28;10397;-85
2023/10/31 05:59:32;;;;;;;;;20.75;19.25;;;;;;;;5071611;28;10213;-89
2023/10/31 06:01:59;;;;;;;;;21.50;17.25;;;;;;;;5071483;28;10101;-89
2023/10/31 06:04:26;;;;;;;;;21.50;17.00;;;;;;;;5072254;28;10193;-87
2023/10/31 06:06:58;;;;;;;;;20.00;20.00;;;;;;;;5073959;28;10208;-88
2023/10/31 06:09:25;;;;;;;;;17.75;17.75;;;;;;;;5074456;28;10386;-87
2023/10/31 06:11:55;;;;;;;;;20.75;18.50;;;;;;;;5072949;28;10114;-75
2023/10/31 06:14:22;;;;;;;;;15.50;15.00;;;;;;;;5070033;28;10192;-76
2023/10/31 06:16:52;;;;;;;;;20.25;17.25;;;;;;;;5073909;28;10109;-78
2023/10/31 06:19:22;;;;;;;;;19.75;18.00;;;;;;;;5068484;28;10209;-78
2023/10/31 06:21:49;;;;;;;;;22.25;19.50;;;;;;;;5067620;28;10305;-77
2023/10/31 06:24:21;;;;;;;;;17.25;13.75;;;;;;;;5069608;28;10068;-78
2023/10/31 06:26:48;;;;;;;;;15.00;15.00;;;;;;;;5070513;28;10093;-79
2023/10/31 06:29:15;;;;;;;;;22.25;17.25;;;;;;;;5060456;28;10048;-78
2023/10/31 06:31:42;;;;;;;;;21.25;18.75;;;;;;;;5067964;28;10232;-78
2023/10/31 06:34:09;;;;;;;;;18.75;16.75;;;;;;;;5069004;28;10044;-78
2023/10/31 06:36:36;;;;;;;;;16.50;15.00;;;;;;;;5067418;28;10049;-78
2023/10/31 06:39:04;;;;;;;;;14.25;14.25;;;;;;;;5069169;28;9931;-79
2023/10/31 06:41:33;;;;;;;;;15.50;15.50;;;;;;;;5068388;28;10044;-79
2023/10/31 06:44:00;;;;;;;;;17.50;16.75;;;;;;;;5068804;28;9976;-78
2023/10/31 06:46:27;;;;;;;;;16.50;16.00;;;;;;;;5068129;28;9979;-78
2023/10/31 06:48:54;;;;;;;;;15.25;15.25;;;;;;;;5069523;28;9796;-78
2023/10/31 06:51:21;;;;;;;;;10.75;9.00;;;;;;;;5069112;28;9703;-78
2023/10/31 06:53:52;;;;;;;;;20.75;15.75;;;;;;;;5069098;28;9872;-78
2023/10/31 06:56:19;;;;;;;;;14.75;14.00;;;;;;;;5065488;28;10340;-78
2023/10/31 06:58:47;;;;;;;;;18.50;15.00;;;;;;;;5068996;28;9725;-78
2023/10/31 07:01:18;;;;;;;;;17.50;16.50;;;;;;;;5067190;28;10324;-77
2023/10/31 07:03:45;;;;;;;;;12.00;12.00;;;;;;;;5068862;28;9877;-78
2023/10/31 07:06:12;;;;;;;;;16.00;12.50;;;;;;;;5068074;28;10565;-77
2023/10/31 07:08:39;;;;;;;;;16.50;12.75;;;;;;;;5068792;28;9804;-78
2023/10/31 07:11:06;;;;;;;;;12.00;12.00;;;;;;;;5068353;28;10609;-78
2023/10/31 07:13:37;;;;;;;;;16.25;15.25;;;;;;;;5068846;28;9891;-77
2023/10/31 07:16:07;;;;;;;;;14.50;13.25;;;;;;;;5066279;28;9791;-77
2023/10/31 07:18:34;;;;;;;;;15.25;15.25;;;;;;;;5067645;28;9837;-77
2023/10/31 07:21:01;;;;;;;;;14.75;9.50;;;;;;;;5068150;28;9686;-77
2023/10/31 07:23:28;;;;;;;;;9.75;9.75;;;;;;;;5068709;28;9629;-78
2023/10/31 07:25:55;;;;;;;;;16.00;14.75;;;;;;;;5066423;28;9661;-77
2023/10/31 07:28:22;;;;;;;;;12.50;12.50;;;;;;;;5068642;28;9626;-76
2023/10/31 07:30:50;;;;;;;;;10.75;10.75;;;;;;;;5067663;28;10305;-76
2023/10/31 07:33:21;;;;;;;;;12.00;10.00;;;;;;;;5068149;28;9466;-74
2023/10/31 07:35:52;;;;;;;;;9.50;7.00;;;;;;;;5068461;28;9535;-76
2023/10/31 07:38:22;;;;;;;;;7.50;7.50;;;;;;;;5067898;28;9555;-77
2023/10/31 07:40:50;;;;;;;;;12.00;12.00;;;;;;;;5068661;28;9643;-78
2023/10/31 07:43:17;;;;;;;;;14.00;10.75;;;;;;;;5066904;28;9736;-77
2023/10/31 07:45:45;;;;;;;;;13.25;10.25;;;;;;;;5068215;28;9584;-78
2023/10/31 07:48:12;;;;;;;;;10.00;9.75;;;;;;;;5068658;28;9703;-77
2023/10/31 07:50:40;;;;;;;;;8.67;8.67;;;;;;;;5070147;28;9550;-77
2023/10/31 07:53:08;;;;;;;;;12.67;10.00;;;;;;;;5069667;28;9408;-77
2023/10/31 07:55:35;;;;;;;;;12.33;8.67;;;;;;;;5070338;28;9431;-77
2023/10/31 07:58:02;;;;;;;;;10.50;8.00;;;;;;;;5069837;28;9486;-76
2023/10/31 08:00:30;;;;;;;;;13.00;11.25;;;;;;;;5068462;28;9363;-78
2023/10/31 08:02:57;;;;;;;;;9.00;8.00;;;;;;;;5069100;28;9564;-79
2023/10/31 08:05:25;;;;;;;;;7.25;7.25;;;;;;;;5068555;28;9436;-78
2023/10/31 08:07:53;;;;;;;;;10.00;10.00;;;;;;;;5067374;28;9407;-78
2023/10/31 08:10:20;;;;;;;;;12.33;10.33;;;;;;;;5067507;28;9570;-77
2023/10/31 08:12:48;;;;;;;;;11.00;7.00;;;;;;;;5062709;28;9396;-79
2023/10/31 08:15:16;;;;;;;;;7.50;7.50;;;;;;;;5048896;28;9493;-78
2023/10/31 08:17:43;;;;;;;;;7.75;7.75;;;;;;;;5049035;28;9491;-79
2023/10/31 08:20:13;;;;;;;;;9.00;9.00;;;;;;;;5047735;28;9398;-78
2023/10/31 08:22:42;;;;;;;;;11.33;10.00;;;;;;;;5066777;28;10155;-79
2023/10/31 08:25:11;;;;;;;;;7.33;5.67;;;;;;;;5067061;28;9407;-80
2023/10/31 08:27:38;;;;;;;;;7.33;7.33;;;;;;;;5067168;28;9427;-78
2023/10/31 08:30:07;;;;;;;;;7.00;7.00;;;;;;;;5066373;28;9452;-78
2023/10/31 08:32:34;;;;;;;;;7.67;7.00;;;;;;;;5067351;28;9396;-78
2023/10/31 08:35:01;;;;;;;;;8.00;7.00;;;;;;;;5067561;28;9331;-77
2023/10/31 08:37:28;;;;;;;;;10.00;6.33;;;;;;;;5067639;28;9393;-77
2023/10/31 08:39:55;;;;;;;;;8.00;6.67;;;;;;;;5066746;28;9427;-77
2023/10/31 08:42:24;;;;;;;;;6.33;6.33;;;;;;;;5066646;28;9261;-77
2023/10/31 08:44:51;;;;;;;;;7.67;6.00;;;;;;;;5066487;28;9179;-77
2023/10/31 08:47:21;;;;;;;;;5.33;5.33;;;;;;;;5065793;28;9244;-76
2023/10/31 08:49:48;;;;;;;;;7.67;6.00;;;;;;;;5065968;28;9172;-77
2023/10/31 08:52:15;;;;;;;;;5.33;4.00;;;;;;;;5066600;28;9202;-76
2023/10/31 08:54:43;;;;;;;;;5.00;5.00;;;;;;;;5066370;28;9167;-77
2023/10/31 08:57:10;;;;;;;;;6.67;6.00;;;;;;;;5066735;28;9252;-77
2023/10/31 08:59:39;;;;;;;;;4.67;4.00;;;;;;;;5066493;28;9200;-76
2023/10/31 09:02:06;;;;;;;;;4.67;4.67;;;;;;;;5066312;28;9045;-77
2023/10/31 09:04:35;;;;;;;;;4.67;4.67;;;;;;;;5050050;28;9169;-77
2023/10/31 09:07:03;;;;;;;;;6.00;4.33;;;;;;;;5057937;28;9038;-77
2023/10/31 09:09:30;;;;;;;;;5.00;4.00;;;;;;;;5067724;28;9025;-76
2023/10/31 09:11:57;;;;;;;;;6.00;4.00;;;;;;;;5066248;28;9167;-76
2023/10/31 09:14:24;;;;;;;;;2.00;0.25;;;;;;;;5065929;28;9036;-77
2023/10/31 09:16:55;;;;;;;;;5.67;4.00;;;;;;;;5066422;28;8846;-75
2023/10/31 09:19:22;;;;;;;;;5.67;4.00;;;;;;;;5065970;28;9017;-75
2023/10/31 09:21:51;;;;;;;;;4.00;4.00;;;;;;;;5066892;28;9008;-76
2023/10/31 09:24:24;;;;;;;;;4.33;4.33;;;;;;;;5066086;28;9026;-75
2023/10/31 09:26:51;;;;;;;;;3.67;3.67;;;;;;;;5067201;28;9908;-75
2023/10/31 09:29:19;;;;;;;;;4.33;3.67;;;;;;;;5066741;28;8996;-75
2023/10/31 09:31:48;;;;;;;;;6.33;5.33;;;;;;;;5066601;28;8966;-75
2023/10/31 09:34:18;;;;;;;;;3.00;3.00;;;;;;;;5066795;28;9178;-74
2023/10/31 09:36:49;;;;;;;;;2.67;2.67;;;;;;;;5065570;28;9056;-75
2023/10/31 09:39:19;;;;;;;;;4.00;4.00;;;;;;;;5067389;28;9168;-74
2023/10/31 09:41:48;;;;;;;;;7.00;6.00;;;;;;;;5069333;28;8992;-75
2023/10/31 09:44:15;;;;;;;;;3.33;3.00;;;;;;;;5070009;28;9025;-76
2023/10/31 09:46:42;;;;;;;;;4.75;3.25;;;;;;;;5069749;28;8945;-76
2023/10/31 09:49:10;;;;;;;;;5.00;5.00;;;;;;;;5069598;28;8850;-76
2023/10/31 09:51:39;;;;;;;;;6.00;4.67;;;;;;;;5068827;28;8999;-76
2023/10/31 09:54:09;;;;;;;;;7.00;5.33;;;;;;;;5066721;28;9022;-76
2023/10/31 09:56:37;;;;;;;;;4.33;4.33;;;;;;;;5070129;28;9002;-77
2023/10/31 09:59:06;;;;;;;;;5.00;5.00;;;;;;;;5070653;28;9025;-77
2023/10/31 10:01:33;;;;;;;;;4.67;4.67;;;;;;;;5067931;28;8929;-76
2023/10/31 10:04:00;;;;;;;;;3.33;3.33;;;;;;;;5058668;28;9208;-76
2023/10/31 10:06:28;;;;;;;;;3.00;3.00;;;;;;;;5069530;28;9033;-77
2023/10/31 10:08:58;;;;;;;;;4.33;4.33;;;;;;;;5069436;28;8960;-77
2023/10/31 10:11:26;;;;;;;;;2.33;2.00;;;;;;;;5069411;28;8942;-75
2023/10/31 10:13:53;;;;;;;;;4.67;4.00;;;;;;;;5069122;28;8954;-76
2023/10/31 10:16:32;;;;;;;;;4.00;4.00;;;;;;;;5069961;28;9005;-77
2023/10/31 10:19:04;;;;;;;;;4.50;4.50;;;;;;;;5069040;28;9002;-77
2023/10/31 10:21:51;;;;;;;;;3.00;3.00;;;;;;;;5070559;28;8847;-77
2023/10/31 10:24:21;;;;;;;;;4.00;4.00;;;;;;;;5070918;28;8968;-78
2023/10/31 10:26:49;;;;;;;;;4.00;4.00;;;;;;;;5068579;28;8952;-77
2023/10/31 10:29:17;;;;;;;;;6.25;4.50;;;;;;;;5067770;28;9074;-78
2023/10/31 10:31:45;;;;;;;;;4.50;4.50;;;;;;;;5068433;28;8795;-78
2023/10/31 10:34:14;;;;;;;;;6.25;4.00;;;;;;;;5068401;28;8835;-78
2023/10/31 10:36:42;;;;;;;;;6.00;4.67;;;;;;;;5068925;28;8874;-76
2023/10/31 10:39:10;;;;;;;;;7.67;5.33;;;;;;;;5069450;28;8934;-77
2023/10/31 10:41:40;;;;;;;;;4.00;4.00;;;;;;;;5067805;28;9816;-76
2023/10/31 10:44:08;;;;;;;;;7.00;5.67;;;;;;;;5069349;28;9012;-79
2023/10/31 10:46:37;;;;;;;;;6.50;4.00;;;;;;;;5068071;28;8971;-76
2023/10/31 10:49:06;;;;;;;;;5.33;4.67;;;;;;;;5068282;28;8847;-77
2023/10/31 10:51:45;;;;;;;;;5.25;5.25;;;;;;;;5067983;28;9035;-77
2023/10/31 10:54:19;;;;;;;;;3.67;3.67;;;;;;;;5068082;28;9001;-77
2023/10/31 10:56:55;;;;;;;;;3.00;3.00;;;;;;;;5067497;28;8961;-77
2023/10/31 10:59:26;;;;;;;;;6.00;3.00;;;;;;;;5068769;28;8859;-77
2023/10/31 11:01:58;;;;;;;;;5.25;3.75;;;;;;;;5068322;28;8807;-76
2023/10/31 11:04:26;;;;;;;;;3.00;3.00;;;;;;;;5066750;28;8847;-75
2023/10/31 11:06:53;;;;;;;;;4.25;4.25;;;;;;;;5068927;28;8985;-75
2023/10/31 11:09:21;;;;;;;;;5.25;3.25;;;;;;;;5066195;28;8885;-78
2023/10/31 11:11:52;;;;;;;;;3.00;3.00;;;;;;;;5067759;28;8859;-76
2023/10/31 11:14:22;;;;;;;;;3.00;3.00;;;;;;;;5068636;28;8869;-76
2023/10/31 11:16:53;;;;;;;;;3.25;3.25;;;;;;;;5068775;28;8847;-76
2023/10/31 11:19:21;;;;;;;;;3.50;2.25;;;;;;;;5067602;28;8956;-75
2023/10/31 11:21:58;;;;;;;;;4.75;3.00;;;;;;;;5068679;28;8989;-76
2023/10/31 11:24:27;;;;;;;;;5.00;2.50;;;;;;;;5057606;28;8855;-77
2023/10/31 11:27:01;;;;;;;;;3.00;3.00;;;;;;;;5070726;28;8998;-76
2023/10/31 11:29:28;;;;;;;;;2.50;2.50;;;;;;;;5070710;28;8866;-75
2023/10/31 11:31:57;;;;;;;;;3.50;3.50;;;;;;;;5067135;28;8829;-76
2023/10/31 11:34:24;;;;;;;;;2.00;2.00;;;;;;;;5070135;28;8839;-75
2023/10/31 11:36:55;;;;;;;;;4.00;3.00;;;;;;;;5070179;28;8863;-75
2023/10/31 11:39:25;;;;;;;;;3.75;3.75;;;;;;;;5069254;28;8870;-77
2023/10/31 11:41:58;;;;;;;;;2.00;2.00;;;;;;;;5066840;28;8889;-76
2023/10/31 11:44:27;;;;;;;;;4.00;2.25;;;;;;;;5068264;28;8850;-76
2023/10/31 11:46:58;;;;;;;;;3.75;2.25;;;;;;;;5066309;28;8873;-76
2023/10/31 11:49:46;;;;;;;;;4.00;2.00;;;;;;;;5067333;28;9009;-76
2023/10/31 11:52:16;;;;;;;;;2.50;2.50;;;;;;;;5057222;28;8861;-74
2023/10/31 11:54:45;;;;;;;;;2.00;2.00;;;;;;;;5066267;28;8865;-75
2023/10/31 11:57:30;;;;;;;;;2.00;2.00;;;;;;;;5067951;28;8862;-77
2023/10/31 11:59:57;;;;;;;;;2.00;1.25;;;;;;;;5067100;28;8992;-75
2023/10/31 12:02:25;;;;;;;;;3.75;3.75;;;;;;;;5067748;28;8849;-76
2023/10/31 12:05:40;;;;;;;;;4.00;2.50;;;;;;;;5067796;28;8855;-75
2023/10/31 12:08:09;;;;;;;;;3.00;3.00;;;;;;;;5069125;28;9660;-77
2023/10/31 12:10:36;;;;;;;;;3.00;1.75;;;;;;;;5070156;28;8847;-77
2023/10/31 12:13:05;;;;;;;;;3.25;2.00;;;;;;;;5061081;28;8834;-76
2023/10/31 12:15:32;;;;;;;;;2.00;2.00;;;;;;;;5061893;28;8854;-75
2023/10/31 12:20:49;;;;;;;;;2.00;2.00;;;;;;;;5064715;28;8862;-76
2023/10/31 12:23:21;;;;;;;;;3.00;3.00;;;;;;;;5067053;28;8862;-77
2023/10/31 12:26:01;;;;;;;;;3.50;1.50;;;;;;;;5067548;28;8834;-76
2023/10/31 12:28:34;;;;;;;;;2.00;2.00;;;;;;;;5070277;28;8875;-77
2023/10/31 12:31:06;;;;;;;;;2.25;0.75;;;;;;;;5055464;28;8821;-75
2023/10/31 12:33:33;;;;;;;;;2.00;2.00;;;;;;;;5067668;28;8908;-76
2023/10/31 12:36:01;;;;;;;;;3.75;2.00;;;;;;;;5067564;28;8893;-74
2023/10/31 12:38:29;;;;;;;;;1.75;1.75;;;;;;;;5066956;28;8863;-74
2023/10/31 12:40:59;;;;;;;;;5.00;1.50;;;;;;;;5067273;28;8866;-75
2023/10/31 12:43:27;;;;;;;;;2.50;1.00;;;;;;;;5067283;28;8950;-74
2023/10/31 12:45:55;;;;;;;;;2.00;2.00;;;;;;;;5070210;28;8972;-74
2023/10/31 12:48:26;;;;;;;;;1.75;1.00;;;;;;;;5067831;28;8876;-75
2023/10/31 12:51:08;;;;;;;;;1.75;1.75;;;;;;;;5067119;28;8896;-75
2023/10/31 12:53:36;;;;;;;;;3.00;2.00;;;;;;;;5067338;28;8835;-74
2023/10/31 12:56:04;;;;;;;;;1.00;1.00;;;;;;;;5066654;28;8908;-75
2023/10/31 12:58:31;;;;;;;;;2.75;2.75;;;;;;;;5067024;28;8874;-76
2023/10/31 13:01:00;;;;;;;;;2.00;2.00;;;;;;;;5064682;28;8791;-75
2023/10/31 13:03:28;;;;;;;;;2.00;2.00;;;;;;;;5056881;28;8866;-74
2023/10/31 13:05:58;;;;;;;;;1.00;1.00;;;;;;;;5066979;28;10371;-75
2023/10/31 13:08:25;;;;;;;;;1.75;1.75;;;;;;;;5068054;28;8839;-74
2023/10/31 13:10:53;;;;;;;;;2.75;2.75;;;;;;;;5068483;28;8966;-77
2023/10/31 13:13:20;;;;;;;;;2.00;2.00;;;;;;;;5069511;28;8831;-78
2023/10/31 13:15:47;;;;;;;;;2.75;1.50;;;;;;;;5069856;28;8847;-75
2023/10/31 13:18:16;;;;;;;;;3.25;2.00;;;;;;;;5071349;28;9064;-73
2023/10/31 13:20:43;;;;;;;;;1.00;1.00;;;;;;;;5070546;28;8881;-74
2023/10/31 13:23:10;;;;;;;;;2.25;0.75;;;;;;;;5067481;28;8850;-76
2023/10/31 13:25:37;;;;;;;;;1.00;1.00;;;;;;;;5067108;28;8839;-76
2023/10/31 13:28:07;;;;;;;;;2.00;1.75;;;;;;;;5068654;28;8896;-76
2023/10/31 13:30:34;;;;;;;;;1.75;1.75;;;;;;;;5070436;28;8807;-77
2023/10/31 13:33:02;;;;;;;;;2.50;1.00;;;;;;;;5070229;28;8851;-77
2023/10/31 13:35:30;;;;;;;;;1.75;1.75;;;;;;;;5070287;28;9001;-76
2023/10/31 13:37:57;;;;;;;;;2.00;2.00;;;;;;;;5069935;28;8975;-76
2023/10/31 13:40:26;;;;;;;;;1.00;1.00;;;;;;;;5069748;28;8847;-74
2023/10/31 13:42:55;;;;;;;;;2.75;1.50;;;;;;;;5070429;28;9652;-75
2023/10/31 13:45:22;;;;;;;;;3.25;1.25;;;;;;;;5068791;28;9645;-75
2023/10/31 13:47:50;;;;;;;;;2.25;2.25;;;;;;;;5071146;28;8847;-75
2023/10/31 13:50:17;;;;;;;;;2.00;2.00;;;;;;;;5071042;28;9641;-75
2023/10/31 13:52:45;;;;;;;;;3.00;2.75;;;;;;;;5068887;28;8855;-75
2023/10/31 13:55:12;;;;;;;;;2.00;2.00;;;;;;;;5071082;28;8900;-77
2023/10/31 13:57:40;;;;;;;;;1.75;1.75;;;;;;;;5070549;28;8904;-77
2023/10/31 14:00:08;;;;;;;;;1.75;1.25;;;;;;;;5069551;28;9641;-75
2023/10/31 14:02:36;;;;;;;;;2.00;2.00;;;;;;;;5069958;28;8979;-77
2023/10/31 14:05:04;;;;;;;;;2.00;0.00;;;;;;;;5069436;28;8862;-76
2023/10/31 14:07:34;;;;;;;;;2.50;2.00;;;;;;;;5066603;28;8861;-76
2023/10/31 14:10:03;;;;;;;;;1.25;1.25;;;;;;;;5069404;28;8908;-77
2023/10/31 14:12:32;;;;;;;;;3.00;2.00;;;;;;;;5067110;28;8857;-76
2023/10/31 14:14:59;;;;;;;;;2.50;2.00;;;;;;;;5066801;28;9638;-77
2023/10/31 14:17:26;;;;;;;;;4.00;2.00;;;;;;;;5065738;28;9676;-77
2023/10/31 14:19:53;;;;;;;;;2.75;2.75;;;;;;;;5066858;28;8866;-77
2023/10/31 14:22:20;;;;;;;;;3.75;2.25;;;;;;;;5066378;28;8857;-76
2023/10/31 14:24:47;;;;;;;;;1.25;1.25;;;;;;;;5066571;28;8858;-76
2023/10/31 14:27:16;;;;;;;;;1.50;1.50;;;;;;;;5065605;28;9307;-77
2023/10/31 14:29:43;;;;;;;;;2.00;2.00;;;;;;;;5069143;28;8885;-75
2023/10/31 14:32:11;;;;;;;;;0.75;0.75;;;;;;;;5064816;28;8802;-76
2023/10/31 14:34:40;;;;;;;;;2.00;2.00;;;;;;;;5069973;28;8881;-79
2023/10/31 14:37:08;;;;;;;;;0.00;0.00;;;;;;;;5068440;28;8863;-75
2023/10/31 14:39:35;;;;;;;;;2.50;1.00;;;;;;;;5069004;28;8908;-76
2023/10/31 14:42:03;;;;;;;;;2.75;1.75;;;;;;;;5068615;28;8858;-76
2023/10/31 14:44:31;;;;;;;;;1.00;1.00;;;;;;;;5055077;28;8842;-80
2023/10/31 14:46:59;;;;;;;;;2.00;2.00;;;;;;;;5060219;28;8873;-79
2023/10/31 14:49:26;;;;;;;;;1.00;1.00;;;;;;;;5058471;28;8865;-76
2023/10/31 14:51:54;;;;;;;;;2.00;2.00;;;;;;;;5064159;28;8906;-79
2023/10/31 14:54:21;;;;;;;;;2.00;2.00;;;;;;;;5059593;28;8845;-78